ESGG/GOT METAR and TAF weather

Enter ICAO airport designator
Station Type Date Time Source
ESGG METAR 2020/07/12 05:20 UTC NOAA

ESGG 120520Z 28010KT 9999 SCT020 BKN027 12/08 Q1018


Station Type Date Time Source
ESGG Decoded METAR 2020/07/12 05:20 UTC NOAA

Goteborg / Landvetter, Sweden (ESGG) 57-40N 012-18E
Jul 12, 2020 - 01:20 AM EDT / 2020.07.12 0520 UTC
Wind: from the W (280 degrees) at 12 MPH (10 KT):0
Visibility: greater than 7 mile(s):0
Sky conditions: mostly cloudy
Temperature: 53 F (12 C)
Dew Point: 46 F (8 C)
Relative Humidity: 76%
Pressure (altimeter): 30.06 in. Hg (1018 hPa)
ob: ESGG 120520Z 28010KT 9999 SCT020 BKN027 12/08 Q1018
cycle: 5

Station Type Date Time Source
ESGG TAF 2020/07/12 06:09 UTC NOAA

TAF TAF ESGG 120530Z 1206/1306 25008KT 9999 SCT020
BECMG 1208/1210 27015G25KT PROB40 1215/1224 BKN012
BECMG 1217/1219 26008KT

Example: see airport list